Latest Conditions
At L.F.Wade Int. Airport
Recorded at 2:55 am
Mostly Cloudy
Temp.: 
22°C/71°F
Humidity: 
65%
Wind: 
NE 10KT
or 12mph
UV Index: 
0
Island Observations
Observations
Sunday, May 24, 2015

Observations are in local time and taken at least once an hour, or upon the start and end of specified events such as showers and thunderstorms.

Time Sky / Weather Wind Speed/Gusts Temp. R.H. Pressure
     knots (mph)  °C (°F)  %  mb / "Hg
 02:55 Mostly Cloudy  NE 10/0 (12/0) 22(71) 65 1026 / 30.29
 01:55 Overcast  NE 10/0 (12/0) 22(71) 69 1026 / 30.31
 00:55 Overcast  NE 10/0 (12/0) 22(72) 70 1027 / 30.32
 23:55 Overcast  NE 11/0 (13/0) 22(72) 73 1027 / 30.32
 22:55 Overcast  NE 12/0 (14/0) 22(72) 77 1027 / 30.32
 21:55 Overcast  ENE 11/0 (13/0) 22(72) 77 1026 / 30.31
 20:55 Mostly Cloudy  NE 11/0 (13/0) 23(73) 79 1026 / 30.30
 19:55 Mostly Cloudy  NNE 9/0 (10/0) 23(74) 77 1026 / 30.30
 18:55 Mostly Cloudy  N 9/0 (10/0) 23(74) 77 1026 / 30.30
 17:55 Mostly Cloudy Showers NNE 9/0 (10/0) 24(75) 77 1026 / 30.29
 16:55 Mostly Cloudy  NNE 9/0 (10/0) 25(76) 75 1025 / 30.28
 15:55 Mostly Cloudy  N 8/0 (9/0) 25(77) 75 1026 / 30.29
 14:55 Mostly Cloudy  N 7/0 (8/0) 25(77) 73 1026 / 30.29
 13:55 Mostly Cloudy  NNE 7/0 (8/0) 25(77) 75 1026 / 30.29
 12:55 Mostly Cloudy  NE 6/0 (7/0) 25(77) 73 1026 / 30.30
 11:55 Mostly Cloudy  ENE 8/0 (9/0) 24(76) 82 1026 / 30.29
 10:55 Overcast Showers NE 5/0 (6/0) 24(74) 84 1026 / 30.29
 10:44 Overcast  NE 6/0 (7/0) 24(74) 82 1026 / 30.29
 09:55 Mostly Cloudy  ENE 5/0 (6/0) 24(75) 81 1025 / 30.28
 08:55 Mostly Cloudy Showers ENE 5/0 (6/0) 24(74) 85 1025 / 30.26
 07:55 Mostly Cloudy Showers NW 3/0 (3/0) 23(73) 87 1024 / 30.25
 06:55 Mostly Cloudy Showers NNW 7/0 (8/0) 22(72) 88 1024 / 30.23
 05:55 Mostly Cloudy  W 11/0 (13/0) 23(74) 90 1023 / 30.20
 04:55 Mostly Cloudy  WSW 9/0 (10/0) 23(74) 90 1023 / 30.20
Observations from our AWOS sites are available here (password and username are both 'guest').